createdAt,value
2019-01-31T00:02:15.191Z,18.33
2019-01-31T00:05:08.739Z,19.53
2019-01-31T00:07:46.568Z,20.67
2019-01-31T00:10:39.309Z,20.40
2019-01-31T00:13:14.286Z,21.17
2019-01-31T00:16:11.830Z,23.10
2019-01-31T00:18:46.423Z,20.30
2019-01-31T00:21:20.645Z,22.27
2019-01-31T00:24:01.628Z,21.40
2019-01-31T00:26:38.766Z,24.27
2019-01-31T00:29:22.734Z,24.37
2019-01-31T00:31:59.601Z,24.77
2019-01-31T00:35:05.634Z,25.80
2019-01-31T00:37:37.278Z,25.37
2019-01-31T00:40:27.276Z,27.97
2019-01-31T00:43:10.853Z,30.77
2019-01-31T00:45:50.804Z,34.40
2019-01-31T00:48:31.139Z,45.03
2019-01-31T00:51:02.836Z,61.37
2019-01-31T00:53:52.796Z,73.17
2019-01-31T00:56:39.312Z,78.87
2019-01-31T00:59:41.218Z,80.40
2019-01-31T01:02:37.065Z,80.40
2019-01-31T01:05:23.872Z,77.70
2019-01-31T01:07:55.625Z,51.63
2019-01-31T01:10:32.697Z,45.73
2019-01-31T01:13:21.494Z,43.97
2019-01-31T01:16:04.879Z,40.87
2019-01-31T01:18:42.451Z,47.43
2019-01-31T01:21:22.962Z,45.10
2019-01-31T01:24:03.467Z,39.47
2019-01-31T01:26:56.070Z,34.20
2019-01-31T01:29:30.575Z,38.20
2019-01-31T01:32:20.032Z,37.83
2019-01-31T01:35:19.240Z,36.20
2019-01-31T01:38:11.274Z,51.47
2019-01-31T01:40:54.790Z,47.37
2019-01-31T01:43:35.181Z,43.70
2019-01-31T01:46:19.084Z,44.23
2019-01-31T01:48:53.286Z,43.83
2019-01-31T01:51:40.014Z,43.47
2019-01-31T01:54:34.257Z,42.87
2019-01-31T01:57:28.575Z,46.23
2019-01-31T02:00:06.098Z,55.40
2019-01-31T02:03:00.305Z,81.40
2019-01-31T02:05:34.903Z,72.57
2019-01-31T02:08:12.439Z,61.33
2019-01-31T02:11:01.922Z,87.27
2019-01-31T02:13:42.573Z,70.87
2019-01-31T02:16:26.265Z,66.53
2019-01-31T02:19:04.300Z,70.63
2019-01-31T02:21:51.118Z,74.00
2019-01-31T02:24:31.817Z,69.00
2019-01-31T02:27:20.100Z,72.17
2019-01-31T02:30:12.947Z,88.47
2019-01-31T02:33:02.874Z,140.10
2019-01-31T02:35:49.450Z,197.50
2019-01-31T02:38:23.944Z,166.27
2019-01-31T02:41:12.073Z,135.77
2019-01-31T02:43:49.519Z,116.03
2019-01-31T02:46:39.525Z,109.77
2019-01-31T02:49:35.429Z,107.03
2019-01-31T02:52:07.170Z,110.57
2019-01-31T02:54:47.641Z,88.70
2019-01-31T02:57:19.832Z,86.17
2019-01-31T03:00:00.341Z,71.97
2019-01-31T03:02:37.749Z,84.63
2019-01-31T03:05:21.278Z,63.20
2019-01-31T03:07:58.985Z,45.07
2019-01-31T03:10:33.394Z,37.53
2019-01-31T03:13:32.238Z,34.57
2019-01-31T03:16:28.123Z,32.60
2019-01-31T03:19:19.474Z,30.60
2019-01-31T03:21:53.709Z,31.87
2019-01-31T03:24:51.356Z,87.20
2019-01-31T03:27:48.706Z,63.70
2019-01-31T03:30:49.251Z,51.37
2019-01-31T03:33:23.793Z,38.63
2019-01-31T03:36:01.233Z,28.53
2019-01-31T03:38:47.799Z,26.57
2019-01-31T03:41:37.326Z,24.33
2019-01-31T03:44:14.769Z,17.27
2019-01-31T03:46:49.135Z,15.67
2019-01-31T03:49:26.602Z,41.87
2019-01-31T03:52:13.161Z,53.67
2019-01-31T03:55:14.951Z,68.20
2019-01-31T03:58:07.488Z,38.67
2019-01-31T04:00:48.164Z,32.63
2019-01-31T04:03:34.882Z,33.90
2019-01-31T04:06:06.602Z,39.40
2019-01-31T04:08:35.330Z,40.80
2019-01-31T04:11:04.213Z,47.73
2019-01-31T04:13:32.950Z,46.87
2019-01-31T04:16:01.685Z,37.60
2019-01-31T04:18:30.466Z,38.77
2019-01-31T04:20:59.215Z,37.13
2019-01-31T04:23:28.000Z,38.13
2019-01-31T04:25:57.505Z,36.43
2019-01-31T04:28:26.243Z,40.70
2019-01-31T04:30:54.974Z,50.50
2019-01-31T04:33:24.228Z,47.07
2019-01-31T04:35:53.139Z,48.37
2019-01-31T04:38:21.860Z,48.27
2019-01-31T04:40:50.641Z,67.97
2019-01-31T04:43:19.376Z,57.30
2019-01-31T04:45:48.120Z,48.63
2019-01-31T04:48:16.940Z,42.97
2019-01-31T04:50:45.674Z,41.07
2019-01-31T04:53:14.409Z,37.63
2019-01-31T04:55:43.299Z,49.43
2019-01-31T04:58:12.025Z,56.37
2019-01-31T05:00:40.958Z,43.10
2019-01-31T05:03:09.742Z,47.10
2019-01-31T05:05:38.475Z,50.57
2019-01-31T05:08:07.204Z,56.97
2019-01-31T05:10:42.598Z,58.20
2019-01-31T05:13:06.439Z,61.43
2019-01-31T05:15:35.162Z,67.23
2019-01-31T05:18:04.845Z,58.40
2019-01-31T05:20:33.645Z,59.87
2019-01-31T05:23:02.446Z,71.47
2019-01-31T05:25:31.216Z,80.80
2019-01-31T05:27:59.975Z,81.23
2019-01-31T05:30:28.704Z,61.13
2019-01-31T05:32:59.015Z,52.37
2019-01-31T05:35:27.898Z,44.00
2019-01-31T05:37:56.622Z,52.43
2019-01-31T05:40:25.508Z,50.13
2019-01-31T05:42:54.247Z,50.17
2019-01-31T05:45:24.749Z,49.00
2019-01-31T05:47:53.533Z,51.33
2019-01-31T05:50:22.274Z,61.70
2019-01-31T05:52:50.995Z,60.40
2019-01-31T05:55:19.795Z,50.83
2019-01-31T05:57:48.516Z,49.17
2019-01-31T06:00:21.662Z,44.17
2019-01-31T06:02:50.427Z,42.63
2019-01-31T06:05:19.242Z,45.43
2019-01-31T06:07:47.973Z,50.97
2019-01-31T06:10:16.854Z,55.53
2019-01-31T06:12:45.587Z,48.07
2019-01-31T06:15:17.226Z,40.73
2019-01-31T06:17:46.046Z,40.33
2019-01-31T06:20:18.190Z,36.17
2019-01-31T06:22:46.904Z,34.20
2019-01-31T06:25:15.699Z,34.47
2019-01-31T06:27:44.522Z,32.93
2019-01-31T06:30:15.745Z,37.13
2019-01-31T06:32:44.547Z,34.43
2019-01-31T06:35:14.080Z,32.20
2019-01-31T06:37:42.790Z,36.67
2019-01-31T06:40:14.353Z,32.57
2019-01-31T06:42:43.082Z,31.97
2019-01-31T06:45:14.845Z,35.43
2019-01-31T06:47:43.736Z,35.90
2019-01-31T06:50:12.462Z,34.57
2019-01-31T06:52:41.192Z,30.50
2019-01-31T06:55:11.873Z,30.20
2019-01-31T06:57:40.604Z,32.33
2019-01-31T07:00:16.076Z,35.03
2019-01-31T07:02:44.861Z,35.90
2019-01-31T07:05:13.714Z,37.00
2019-01-31T07:07:42.491Z,36.43
2019-01-31T07:10:14.462Z,42.10
2019-01-31T07:12:43.199Z,46.03
2019-01-31T07:15:13.467Z,42.03
2019-01-31T07:17:42.197Z,48.67
2019-01-31T07:20:13.522Z,39.53
2019-01-31T07:22:42.387Z,35.20
2019-01-31T07:25:19.853Z,32.67
2019-01-31T07:27:50.456Z,38.80
2019-01-31T07:30:26.318Z,35.03
2019-01-31T07:32:54.116Z,57.03
2019-01-31T07:35:22.883Z,34.37
2019-01-31T07:37:53.118Z,25.77
2019-01-31T07:40:23.062Z,27.23
2019-01-31T07:42:51.936Z,30.60
2019-01-31T07:45:23.306Z,32.47
2019-01-31T07:47:52.037Z,88.70
2019-01-31T07:50:21.321Z,55.23
2019-01-31T07:52:50.146Z,57.23
2019-01-31T07:55:19.183Z,40.97
2019-01-31T07:57:48.143Z,39.80
2019-01-31T08:00:19.341Z,38.30
2019-01-31T08:02:48.071Z,44.63
2019-01-31T08:05:18.865Z,37.07
2019-01-31T08:07:49.068Z,35.63
2019-01-31T08:10:23.705Z,35.27
2019-01-31T08:12:52.435Z,38.93
2019-01-31T08:15:21.362Z,47.10
2019-01-31T08:17:50.273Z,47.50
2019-01-31T08:20:20.310Z,46.03
2019-01-31T08:22:49.037Z,87.23
2019-01-31T08:25:25.747Z,62.57
2019-01-31T08:27:55.588Z,80.43
2019-01-31T08:30:29.907Z,67.77
2019-01-31T08:32:58.737Z,52.33
2019-01-31T08:35:27.661Z,56.93
2019-01-31T08:37:56.550Z,50.33
2019-01-31T08:40:25.276Z,46.23
2019-01-31T08:42:54.098Z,48.13
2019-01-31T08:45:23.293Z,41.10
2019-01-31T08:47:52.020Z,39.00
2019-01-31T08:50:23.301Z,40.67
2019-01-31T08:52:52.188Z,41.53
2019-01-31T08:55:20.929Z,49.03
2019-01-31T08:57:49.638Z,47.03
2019-01-31T09:00:21.169Z,49.80
2019-01-31T09:02:49.891Z,47.67
2019-01-31T09:05:18.724Z,45.83
2019-01-31T09:07:56.874Z,43.00
2019-01-31T09:10:28.344Z,47.00
2019-01-31T09:12:57.663Z,46.00
2019-01-31T09:15:27.287Z,43.50
2019-01-31T09:17:56.160Z,43.63
2019-01-31T09:20:31.057Z,44.27
2019-01-31T09:23:08.569Z,42.80
2019-01-31T09:25:48.889Z,44.43
2019-01-31T09:28:29.608Z,48.43
2019-01-31T09:31:01.201Z,41.37
2019-01-31T09:33:49.904Z,43.60
2019-01-31T09:36:36.631Z,41.67
2019-01-31T09:39:11.127Z,43.20
2019-01-31T09:41:57.791Z,43.47
2019-01-31T09:44:49.184Z,44.60
2019-01-31T09:47:32.879Z,43.97
2019-01-31T09:50:22.641Z,37.33
2019-01-31T09:53:16.888Z,35.50
2019-01-31T09:56:14.068Z,34.30
2019-01-31T09:58:51.602Z,32.80
2019-01-31T10:01:41.297Z,33.93
2019-01-31T10:04:12.922Z,33.33
2019-01-31T10:06:56.683Z,31.97
2019-01-31T10:09:31.269Z,31.03
2019-01-31T10:12:08.849Z,30.63
2019-01-31T10:14:40.437Z,29.77
2019-01-31T10:17:21.588Z,28.83
2019-01-31T10:20:08.137Z,29.33
2019-01-31T10:22:53.586Z,29.00
2019-01-31T10:25:31.443Z,26.73
2019-01-31T10:28:26.067Z,27.87
2019-01-31T10:31:15.885Z,27.27
2019-01-31T10:33:59.701Z,26.50
2019-01-31T10:36:40.345Z,24.30
2019-01-31T10:39:14.962Z,26.37
2019-01-31T10:41:52.719Z,28.03
2019-01-31T10:44:42.690Z,27.13
2019-01-31T10:47:22.689Z,26.13
2019-01-31T10:50:09.582Z,26.43
2019-01-31T10:53:00.309Z,26.87
2019-01-31T10:55:52.452Z,25.30
2019-01-31T10:58:29.656Z,26.57
2019-01-31T11:01:01.289Z,24.33
2019-01-31T11:03:35.886Z,25.37
2019-01-31T11:06:19.880Z,24.87
2019-01-31T11:09:04.183Z,22.13
2019-01-31T11:11:41.997Z,26.27
2019-01-31T11:14:25.633Z,25.47
2019-01-31T11:17:16.928Z,33.07
2019-01-31T11:19:54.225Z,28.73
2019-01-31T11:22:34.611Z,28.80
2019-01-31T11:25:06.207Z,31.60
2019-01-31T11:27:54.759Z,30.63
2019-01-31T11:30:38.368Z,29.57
2019-01-31T11:33:18.657Z,28.27
2019-01-31T11:36:12.745Z,27.07
2019-01-31T11:39:08.812Z,26.37
2019-01-31T11:41:56.892Z,25.47
2019-01-31T11:44:43.569Z,27.27
2019-01-31T11:47:15.169Z,32.17
2019-01-31T11:49:58.724Z,30.17
2019-01-31T11:52:36.110Z,23.40
2019-01-31T11:55:13.331Z,23.67
2019-01-31T11:58:06.007Z,29.40
2019-01-31T12:00:34.749Z,25.30
2019-01-31T12:03:03.433Z,23.03
2019-01-31T12:05:32.116Z,22.27
2019-01-31T12:08:00.945Z,22.00
2019-01-31T12:10:29.633Z,21.97
2019-01-31T12:12:58.515Z,24.37
2019-01-31T12:15:27.361Z,22.63
2019-01-31T12:17:56.038Z,24.87
2019-01-31T12:20:24.732Z,24.33
2019-01-31T12:22:53.457Z,24.60
2019-01-31T12:25:22.144Z,29.50
2019-01-31T12:27:50.820Z,26.37
2019-01-31T12:30:22.805Z,34.97
2019-01-31T12:32:51.507Z,35.40
2019-01-31T12:35:20.194Z,24.63
2019-01-31T12:37:49.028Z,27.43
2019-01-31T12:40:18.913Z,34.13
2019-01-31T12:42:47.984Z,27.57
2019-01-31T12:45:20.736Z,28.97
2019-01-31T12:47:49.413Z,27.93
2019-01-31T12:50:20.800Z,33.20
2019-01-31T12:52:49.657Z,65.50
2019-01-31T12:55:18.333Z,39.37
2019-01-31T12:57:47.115Z,35.57
2019-01-31T13:00:27.173Z,28.50
2019-01-31T13:02:55.958Z,29.60
2019-01-31T13:05:24.818Z,28.73
2019-01-31T13:07:53.576Z,28.97
2019-01-31T13:10:22.256Z,30.47
2019-01-31T13:12:51.452Z,35.13
2019-01-31T13:15:20.502Z,30.40
2019-01-31T13:17:49.346Z,30.07
2019-01-31T13:20:22.701Z,39.03
2019-01-31T13:22:56.131Z,35.20
2019-01-31T13:25:25.994Z,33.80
2019-01-31T13:27:54.774Z,32.63
2019-01-31T13:30:24.509Z,34.53
2019-01-31T13:32:55.289Z,36.23
2019-01-31T13:35:24.197Z,37.40
2019-01-31T13:37:53.422Z,49.17
2019-01-31T13:40:27.932Z,49.10
2019-01-31T13:42:56.784Z,44.37
2019-01-31T13:45:30.416Z,42.97
2019-01-31T13:48:01.897Z,50.97
2019-01-31T13:50:32.452Z,55.30
2019-01-31T13:53:01.241Z,54.40
2019-01-31T13:55:31.797Z,60.30
2019-01-31T13:58:00.487Z,67.07
2019-01-31T14:00:29.166Z,62.80
2019-01-31T14:02:58.335Z,54.07
2019-01-31T14:05:29.765Z,58.90
2019-01-31T14:07:57.546Z,59.23
2019-01-31T14:10:27.519Z,55.93
2019-01-31T14:12:56.248Z,55.80
2019-01-31T14:15:34.188Z,61.13
2019-01-31T14:18:03.253Z,64.40
2019-01-31T14:20:32.387Z,56.37
2019-01-31T14:23:01.508Z,50.10
2019-01-31T14:25:30.231Z,53.50
2019-01-31T14:27:59.050Z,50.53
2019-01-31T14:30:33.452Z,57.87
2019-01-31T14:33:02.380Z,48.77
2019-01-31T14:35:31.603Z,49.43
2019-01-31T14:38:00.602Z,54.47
2019-01-31T14:40:29.394Z,48.93
2019-01-31T14:43:00.214Z,52.63
2019-01-31T14:45:30.127Z,48.57
2019-01-31T14:47:58.977Z,49.83
2019-01-31T14:50:31.903Z,53.20
2019-01-31T14:53:00.770Z,47.40
2019-01-31T14:55:30.320Z,46.20
2019-01-31T14:57:59.151Z,52.97
2019-01-31T15:00:32.932Z,63.60
2019-01-31T15:03:01.652Z,53.90
2019-01-31T15:05:30.388Z,57.00
2019-01-31T15:07:59.262Z,47.77
2019-01-31T15:10:29.916Z,45.13
2019-01-31T15:12:58.840Z,47.17
2019-01-31T15:15:27.805Z,60.90
2019-01-31T15:17:56.808Z,60.00
2019-01-31T15:20:37.803Z,59.57
2019-01-31T15:23:01.790Z,55.93
2019-01-31T15:25:30.525Z,49.37
2019-01-31T15:27:59.247Z,52.97
2019-01-31T15:30:32.894Z,54.47
2019-01-31T15:33:04.644Z,56.33
2019-01-31T15:35:33.373Z,54.23
2019-01-31T15:38:02.266Z,92.77
2019-01-31T15:40:37.136Z,55.10
2019-01-31T15:43:07.224Z,80.33
2019-01-31T15:45:35.941Z,43.97
2019-01-31T15:48:05.364Z,41.07
2019-01-31T15:50:34.843Z,45.07
2019-01-31T15:53:04.176Z,49.33
2019-01-31T15:55:33.011Z,57.50
2019-01-31T15:58:01.892Z,48.67
2019-01-31T16:00:41.094Z,58.63
2019-01-31T16:03:17.786Z,78.63
2019-01-31T16:05:46.912Z,125.10
2019-01-31T16:08:15.849Z,48.00
2019-01-31T16:10:44.878Z,57.37
2019-01-31T16:13:13.837Z,52.37
2019-01-31T16:15:43.017Z,59.63
2019-01-31T16:18:12.607Z,67.13
2019-01-31T16:20:41.531Z,75.73
2019-01-31T16:23:10.961Z,98.80
2019-01-31T16:25:39.765Z,101.80
2019-01-31T16:28:08.594Z,96.63
2019-01-31T16:30:37.321Z,91.10
2019-01-31T16:33:06.412Z,92.17
2019-01-31T16:35:35.139Z,89.07
2019-01-31T16:38:03.958Z,79.10
2019-01-31T16:40:32.760Z,57.07
2019-01-31T16:43:01.483Z,70.90
2019-01-31T16:45:30.706Z,57.67
2019-01-31T16:47:59.509Z,51.37
2019-01-31T16:50:28.238Z,61.37
2019-01-31T16:52:57.980Z,50.73
2019-01-31T16:55:31.297Z,52.07
2019-01-31T16:58:00.527Z,45.50
2019-01-31T17:00:35.517Z,46.33
2019-01-31T17:03:05.365Z,50.73
2019-01-31T17:05:34.477Z,47.50
2019-01-31T17:08:09.349Z,48.93
2019-01-31T17:10:38.102Z,51.47
2019-01-31T17:13:06.911Z,51.50
2019-01-31T17:15:35.787Z,54.53
2019-01-31T17:18:06.015Z,51.43
2019-01-31T17:20:37.507Z,46.17
2019-01-31T17:23:06.775Z,46.50
2019-01-31T17:25:35.502Z,47.80
2019-01-31T17:28:04.626Z,51.80
2019-01-31T17:30:33.374Z,48.80
2019-01-31T17:33:02.148Z,60.00
2019-01-31T17:35:30.870Z,56.53
2019-01-31T17:37:59.747Z,68.03
2019-01-31T17:40:33.920Z,58.73
2019-01-31T17:43:02.743Z,39.07
2019-01-31T17:45:31.540Z,39.83
2019-01-31T17:48:00.467Z,43.77
2019-01-31T17:50:29.393Z,44.37
2019-01-31T17:52:58.495Z,39.53
2019-01-31T17:55:28.095Z,37.47
2019-01-31T17:57:58.954Z,35.30
2019-01-31T18:00:35.062Z,30.97
2019-01-31T18:03:04.077Z,31.33
2019-01-31T18:05:35.811Z,30.23
2019-01-31T18:08:09.047Z,34.20
2019-01-31T18:10:36.342Z,37.77
2019-01-31T18:13:05.749Z,32.97
2019-01-31T18:15:41.598Z,33.10
2019-01-31T18:18:05.885Z,40.77
2019-01-31T18:20:35.075Z,39.27
2019-01-31T18:23:03.995Z,37.10
2019-01-31T18:25:32.725Z,31.03
2019-01-31T18:28:07.975Z,50.13
2019-01-31T18:30:38.360Z,36.27
2019-01-31T18:33:14.078Z,57.13
2019-01-31T18:35:42.799Z,32.73
2019-01-31T18:38:16.508Z,64.07
2019-01-31T18:40:45.916Z,42.77
2019-01-31T18:43:14.637Z,72.03
2019-01-31T18:45:52.905Z,66.73
2019-01-31T18:48:15.180Z,69.90
2019-01-31T18:50:43.972Z,49.17
2019-01-31T18:53:13.040Z,52.50
2019-01-31T18:55:41.868Z,28.67
2019-01-31T18:58:10.592Z,22.30
2019-01-31T19:00:49.032Z,18.93
2019-01-31T19:03:20.060Z,17.50
2019-01-31T19:05:48.982Z,19.23
2019-01-31T19:08:17.987Z,20.97
2019-01-31T19:10:46.671Z,28.83
2019-01-31T19:13:15.417Z,16.37
2019-01-31T19:15:46.419Z,16.00
2019-01-31T19:18:14.924Z,22.33
2019-01-31T19:20:43.651Z,17.23
2019-01-31T19:23:12.546Z,20.87
2019-01-31T19:25:41.265Z,17.83
2019-01-31T19:28:13.004Z,22.10
2019-01-31T19:30:41.694Z,19.90
2019-01-31T19:33:10.508Z,10.57
2019-01-31T19:35:45.892Z,7.23
2019-01-31T19:38:14.583Z,6.63
2019-01-31T19:40:44.199Z,10.37
2019-01-31T19:43:21.887Z,10.13
2019-01-31T19:45:51.516Z,13.77
2019-01-31T19:48:22.995Z,10.97
2019-01-31T19:50:51.887Z,12.43
2019-01-31T19:53:22.181Z,11.87
2019-01-31T19:56:16.915Z,9.03
2019-01-31T19:58:45.642Z,18.27
2019-01-31T20:01:14.551Z,14.17
2019-01-31T20:03:43.259Z,14.33
2019-01-31T20:06:12.257Z,22.33
2019-01-31T20:08:41.127Z,11.47
2019-01-31T20:11:09.872Z,15.17
2019-01-31T20:13:38.590Z,12.03
2019-01-31T20:16:07.414Z,20.60
2019-01-31T20:18:36.129Z,13.10
2019-01-31T20:21:05.550Z,13.47
2019-01-31T20:23:34.530Z,13.90
2019-01-31T20:26:03.224Z,16.17
2019-01-31T20:28:34.059Z,13.50
2019-01-31T20:31:02.925Z,11.63
2019-01-31T20:33:31.647Z,11.53
2019-01-31T20:36:10.891Z,11.23
2019-01-31T20:38:39.611Z,12.93
2019-01-31T20:41:08.534Z,24.73
2019-01-31T20:43:37.423Z,28.67
2019-01-31T20:46:06.139Z,20.97
2019-01-31T20:48:34.862Z,19.97
2019-01-31T20:51:03.641Z,16.43
2019-01-31T20:53:32.365Z,13.23
2019-01-31T20:56:01.089Z,20.67
2019-01-31T20:58:29.879Z,18.53
2019-01-31T21:00:58.605Z,38.07
2019-01-31T21:03:27.334Z,95.00
2019-01-31T21:05:56.178Z,24.27
2019-01-31T21:08:24.901Z,53.23
2019-01-31T21:10:53.649Z,52.53
2019-01-31T21:13:22.561Z,45.03
2019-01-31T21:15:53.079Z,31.57
2019-01-31T21:18:21.715Z,9.43
2019-01-31T21:20:50.471Z,7.63
2019-01-31T21:23:19.184Z,9.70
2019-01-31T21:25:47.914Z,10.43
2019-01-31T21:28:16.689Z,9.47
2019-01-31T21:30:45.509Z,6.83
2019-01-31T21:33:14.228Z,51.50
2019-01-31T21:35:43.122Z,30.17
2019-01-31T21:38:11.863Z,25.40
2019-01-31T21:40:40.583Z,47.30
2019-01-31T21:43:09.537Z,20.73
2019-01-31T21:45:38.560Z,12.80
2019-01-31T21:48:07.574Z,9.67
2019-01-31T21:50:36.884Z,14.47
2019-01-31T21:53:06.002Z,28.10
2019-01-31T21:55:34.723Z,21.57
2019-01-31T21:58:03.555Z,27.57
2019-01-31T22:00:34.179Z,26.50
2019-01-31T22:03:03.692Z,20.40
2019-01-31T22:05:32.484Z,14.43
2019-01-31T22:08:01.244Z,11.37
2019-01-31T22:10:30.148Z,5.10
2019-01-31T22:12:59.029Z,3.80
2019-01-31T22:15:35.266Z,5.57
2019-01-31T22:18:04.337Z,14.03
2019-01-31T22:20:34.059Z,4.97
2019-01-31T22:23:02.777Z,6.30
2019-01-31T22:25:31.738Z,4.40
2019-01-31T22:28:00.588Z,8.93
2019-01-31T22:30:31.546Z,8.10
2019-01-31T22:33:00.532Z,4.10
2019-01-31T22:35:29.386Z,9.33
2019-01-31T22:37:58.208Z,8.00
2019-01-31T22:40:27.292Z,8.70
2019-01-31T22:42:56.008Z,3.90
2019-01-31T22:45:25.527Z,4.23
2019-01-31T22:47:54.974Z,4.10
2019-01-31T22:50:24.285Z,3.33
2019-01-31T22:52:53.005Z,4.23
2019-01-31T22:55:26.457Z,3.13
2019-01-31T22:57:55.575Z,8.23
2019-01-31T23:00:50.513Z,2.93
2019-01-31T23:03:19.329Z,3.40
2019-01-31T23:05:48.050Z,4.37
2019-01-31T23:08:16.928Z,3.83
2019-01-31T23:10:45.643Z,3.57
2019-01-31T23:13:14.364Z,5.73
2019-01-31T23:15:43.120Z,10.63
2019-01-31T23:18:13.298Z,2.77
2019-01-31T23:20:44.263Z,3.27
2019-01-31T23:23:12.829Z,3.30
2019-01-31T23:25:41.543Z,3.43
2019-01-31T23:28:10.257Z,3.90
2019-01-31T23:30:39.442Z,3.27
2019-01-31T23:33:08.154Z,3.30
2019-01-31T23:35:36.964Z,2.70
2019-01-31T23:38:05.993Z,3.43
2019-01-31T23:40:34.705Z,3.30
2019-01-31T23:43:03.413Z,3.53
2019-01-31T23:45:32.301Z,3.77
2019-01-31T23:48:01.010Z,2.63
2019-01-31T23:50:29.725Z,2.07
2019-01-31T23:52:58.590Z,2.63
2019-01-31T23:55:27.297Z,2.67
2019-01-31T23:57:56.003Z,2.10
